createdAt,value
2018-05-12T00:00:06.284Z,12.90
2018-05-12T00:01:06.157Z,11.80
2018-05-12T00:02:06.147Z,8.30
2018-05-12T00:03:06.205Z,8.90
2018-05-12T00:04:06.090Z,12.10
2018-05-12T00:05:06.219Z,10.20
2018-05-12T00:06:06.049Z,9.20
2018-05-12T00:07:06.130Z,10.20
2018-05-12T00:08:06.003Z,10.00
2018-05-12T00:09:06.040Z,12.20
2018-05-12T00:10:05.961Z,10.60
2018-05-12T00:11:06.053Z,9.70
2018-05-12T00:12:05.917Z,8.30
2018-05-12T00:13:05.963Z,8.40
2018-05-12T00:14:05.873Z,8.80
2018-05-12T00:15:06.018Z,8.90
2018-05-12T00:16:05.831Z,8.70
2018-05-12T00:17:05.888Z,8.80
2018-05-12T00:18:05.787Z,9.40
2018-05-12T00:19:05.904Z,10.70
2018-05-12T00:20:05.739Z,10.90
2018-05-12T00:21:05.818Z,8.50
2018-05-12T00:22:05.701Z,9.60
2018-05-12T00:23:05.830Z,8.50
2018-05-12T00:24:05.652Z,8.30
2018-05-12T00:25:05.742Z,9.60
2018-05-12T00:26:05.609Z,9.40
2018-05-12T00:27:05.757Z,9.50
2018-05-12T00:28:05.564Z,8.80
2018-05-12T00:29:05.668Z,10.30
2018-05-12T00:30:05.519Z,8.40
2018-05-12T00:31:05.579Z,10.00
2018-05-12T00:32:05.476Z,8.40
2018-05-12T00:33:05.590Z,8.70
2018-05-12T00:34:05.441Z,8.50
2018-05-12T00:35:05.504Z,7.80
2018-05-12T00:36:05.390Z,8.00
2018-05-12T00:37:05.518Z,7.60
2018-05-12T00:38:05.350Z,9.40
2018-05-12T00:39:05.433Z,8.00
2018-05-12T00:40:05.303Z,8.10
2018-05-12T00:41:05.446Z,7.80
2018-05-12T00:42:05.252Z,8.80
2018-05-12T00:43:05.438Z,8.00
2018-05-12T00:44:05.214Z,7.50
2018-05-12T00:45:05.374Z,7.50
2018-05-12T00:46:05.174Z,8.00
2018-05-12T00:47:05.283Z,8.50
2018-05-12T00:48:05.126Z,7.50
2018-05-12T00:49:05.195Z,7.80
2018-05-12T00:50:05.084Z,7.80
2018-05-12T00:51:05.208Z,7.70
2018-05-12T00:52:05.041Z,7.70
2018-05-12T00:53:05.119Z,7.50
2018-05-12T00:54:04.992Z,8.10
2018-05-12T00:55:05.129Z,7.60
2018-05-12T00:56:04.946Z,7.70
2018-05-12T00:57:05.047Z,7.60
2018-05-12T00:58:04.905Z,7.70
2018-05-12T00:59:05.059Z,7.60
2018-05-12T01:00:04.863Z,8.10
2018-05-12T01:01:04.969Z,9.40
2018-05-12T01:02:04.813Z,7.00
2018-05-12T01:03:04.985Z,8.00
2018-05-12T01:04:04.771Z,9.80
2018-05-12T01:05:04.898Z,7.80
2018-05-12T01:06:04.726Z,7.50
2018-05-12T01:07:04.809Z,7.70
2018-05-12T01:08:04.680Z,9.30
2018-05-12T01:09:04.826Z,7.60
2018-05-12T01:10:04.637Z,8.40
2018-05-12T01:11:11.836Z,8.20
2018-05-12T01:12:57.614Z,8.90
2018-05-12T01:13:57.528Z,8.00
2018-05-12T01:15:50.471Z,7.90
2018-05-12T01:16:50.377Z,8.20
2018-05-12T01:18:43.350Z,7.30
2018-05-12T01:19:43.228Z,8.30
2018-05-12T01:21:36.171Z,7.70
2018-05-12T01:22:36.077Z,7.80
2018-05-12T01:24:29.021Z,8.00
2018-05-12T01:25:28.928Z,7.80
2018-05-12T01:27:21.872Z,8.40
2018-05-12T01:28:21.780Z,9.60
2018-05-12T01:30:14.729Z,8.50
2018-05-12T01:31:14.645Z,10.10
2018-05-12T01:33:07.570Z,8.00
2018-05-12T01:34:07.483Z,9.60
2018-05-12T01:36:00.421Z,8.50
2018-05-12T01:37:00.334Z,7.50
2018-05-12T01:38:53.524Z,8.40
2018-05-12T01:39:53.241Z,8.00
2018-05-12T01:41:46.387Z,7.90
2018-05-12T01:42:46.187Z,7.40
2018-05-12T01:44:39.355Z,8.10
2018-05-12T01:45:39.143Z,7.90
2018-05-12T01:47:32.301Z,7.60
2018-05-12T01:48:32.097Z,8.20
2018-05-12T01:50:25.258Z,7.30
2018-05-12T01:51:25.057Z,8.10
2018-05-12T01:53:18.069Z,8.00
2018-05-12T01:54:18.083Z,8.40
2018-05-12T01:56:11.170Z,7.50
2018-05-12T01:57:11.141Z,8.00
2018-05-12T01:59:04.122Z,7.70
2018-05-12T02:00:03.922Z,8.10
2018-05-12T02:01:57.003Z,8.20
2018-05-12T02:02:56.881Z,8.40
2018-05-12T02:04:50.031Z,8.60
2018-05-12T02:05:49.835Z,7.90
2018-05-12T02:07:43.004Z,8.50
2018-05-12T02:08:42.789Z,8.70
2018-05-12T02:10:35.738Z,8.40
2018-05-12T02:11:35.643Z,8.10
2018-05-12T02:13:28.795Z,9.30
2018-05-12T02:14:28.597Z,7.90
2018-05-12T02:16:21.759Z,8.20
2018-05-12T02:17:21.560Z,8.00
2018-05-12T02:19:14.704Z,8.50
2018-05-12T02:20:14.508Z,8.90
2018-05-12T02:22:07.660Z,7.90
2018-05-12T02:23:07.462Z,8.70
2018-05-12T02:25:00.617Z,13.60
2018-05-12T02:26:00.417Z,9.00
2018-05-12T02:27:53.571Z,8.40
2018-05-12T02:28:53.372Z,10.00
2018-05-12T02:30:46.531Z,8.80
2018-05-12T02:31:46.327Z,10.10
2018-05-12T02:33:39.480Z,8.20
2018-05-12T02:34:39.284Z,8.60
2018-05-12T02:36:32.438Z,8.90
2018-05-12T02:37:32.237Z,9.30
2018-05-12T02:39:25.438Z,8.60
2018-05-12T02:40:25.194Z,9.30
2018-05-12T02:42:18.353Z,8.40
2018-05-12T02:43:18.152Z,9.30
2018-05-12T02:45:11.213Z,9.70
2018-05-12T02:46:11.104Z,8.80
2018-05-12T02:48:04.156Z,9.40
2018-05-12T02:49:04.061Z,10.60
2018-05-12T02:50:57.134Z,10.00
2018-05-12T02:51:57.020Z,9.20
2018-05-12T02:53:49.969Z,9.80
2018-05-12T02:54:49.873Z,9.40
2018-05-12T02:56:42.822Z,9.50
2018-05-12T02:57:42.731Z,9.70
2018-05-12T02:59:35.673Z,9.80
2018-05-12T03:00:35.668Z,9.80
2018-05-12T03:02:28.527Z,8.80
2018-05-12T03:03:28.431Z,9.30
2018-05-12T03:05:21.380Z,9.60
2018-05-12T03:06:21.288Z,9.60
2018-05-12T03:08:14.334Z,10.10
2018-05-12T03:09:14.238Z,10.00
2018-05-12T03:11:07.293Z,9.90
2018-05-12T03:12:07.199Z,9.60
2018-05-12T03:14:00.147Z,10.50
2018-05-12T03:15:00.051Z,10.30
2018-05-12T03:16:53.098Z,9.90
2018-05-12T03:17:53.005Z,12.60
2018-05-12T03:19:46.055Z,10.50
2018-05-12T03:20:45.960Z,10.20
2018-05-12T03:22:39.009Z,11.20
2018-05-12T03:23:38.913Z,10.10
2018-05-12T03:25:31.964Z,10.70
2018-05-12T03:26:31.868Z,11.00
2018-05-12T03:28:24.922Z,10.40
2018-05-12T03:29:24.835Z,10.70
2018-05-12T03:31:17.871Z,11.30
2018-05-12T03:32:17.781Z,12.70
2018-05-12T03:34:10.830Z,10.20
2018-05-12T03:35:10.731Z,11.10
2018-05-12T03:37:03.888Z,11.10
2018-05-12T03:38:03.687Z,11.10
2018-05-12T03:39:56.851Z,12.10
2018-05-12T03:40:56.642Z,10.80
2018-05-12T03:42:49.704Z,11.40
2018-05-12T03:43:49.599Z,11.90
2018-05-12T03:45:42.762Z,11.50
2018-05-12T03:46:42.556Z,12.30
2018-05-12T03:48:35.711Z,12.40
2018-05-12T03:49:42.725Z,12.10
2018-05-12T03:51:28.500Z,11.90
2018-05-12T03:52:28.405Z,12.20
2018-05-12T03:54:21.352Z,13.10
2018-05-12T03:55:21.262Z,12.40
2018-05-12T03:57:14.203Z,12.50
2018-05-12T03:58:14.114Z,12.40
2018-05-12T04:00:07.082Z,12.20
2018-05-12T04:01:06.988Z,11.90
2018-05-12T04:02:59.949Z,13.20
2018-05-12T04:03:59.837Z,12.10
2018-05-12T04:05:52.889Z,12.80
2018-05-12T04:06:52.790Z,13.10
2018-05-12T04:08:45.849Z,13.20
2018-05-12T04:09:45.748Z,13.00
2018-05-12T04:11:38.798Z,15.20
2018-05-12T04:12:38.705Z,14.10
2018-05-12T04:14:31.756Z,14.00
2018-05-12T04:15:31.647Z,14.00
2018-05-12T04:17:24.711Z,13.70
2018-05-12T04:18:24.620Z,13.30
2018-05-12T04:20:17.665Z,14.30
2018-05-12T04:21:17.569Z,14.00
2018-05-12T04:23:10.627Z,13.90
2018-05-12T04:24:10.525Z,13.50
2018-05-12T04:26:03.577Z,14.00
2018-05-12T04:27:03.481Z,13.60
2018-05-12T04:28:56.636Z,14.20
2018-05-12T04:29:56.433Z,13.60
2018-05-12T04:31:49.488Z,14.10
2018-05-12T04:32:49.389Z,14.40
2018-05-12T04:34:42.546Z,14.10
2018-05-12T04:35:42.345Z,14.80
2018-05-12T04:37:35.500Z,15.50
2018-05-12T04:38:35.299Z,15.40
2018-05-12T04:40:28.457Z,15.30
2018-05-12T04:41:28.256Z,14.80
2018-05-12T04:43:21.504Z,14.90
2018-05-12T04:44:21.212Z,14.60
2018-05-12T04:46:14.165Z,15.50
2018-05-12T04:47:14.079Z,15.30
2018-05-12T04:49:07.024Z,16.50
2018-05-12T04:50:06.929Z,15.30
2018-05-12T04:51:59.873Z,16.40
2018-05-12T04:52:59.774Z,16.70
2018-05-12T04:54:52.723Z,16.10
2018-05-12T04:55:52.627Z,16.20
2018-05-12T04:57:45.578Z,17.70
2018-05-12T04:58:45.480Z,16.30
2018-05-12T05:00:38.431Z,17.10
2018-05-12T05:01:38.333Z,15.60
2018-05-12T05:03:31.285Z,18.20
2018-05-12T05:04:31.186Z,16.90
2018-05-12T05:06:24.139Z,17.80
2018-05-12T05:07:24.042Z,19.10
2018-05-12T05:09:16.996Z,18.30
2018-05-12T05:10:16.897Z,18.70
2018-05-12T05:12:09.843Z,18.50
2018-05-12T05:13:09.749Z,18.70
2018-05-12T05:15:03.209Z,17.30
2018-05-12T05:16:03.117Z,17.60
2018-05-12T05:17:56.065Z,20.30
2018-05-12T05:18:55.968Z,17.80
2018-05-12T05:20:48.919Z,17.60
2018-05-12T05:21:48.818Z,17.60
2018-05-12T05:23:41.768Z,17.80
2018-05-12T05:24:41.675Z,17.50
2018-05-12T05:26:34.629Z,17.80
2018-05-12T05:27:34.535Z,17.50
2018-05-12T05:29:27.479Z,19.50
2018-05-12T05:30:27.377Z,16.30
2018-05-12T05:32:20.331Z,17.40
2018-05-12T05:33:20.233Z,18.00
2018-05-12T05:35:13.243Z,16.40
2018-05-12T05:36:13.086Z,16.60
2018-05-12T05:38:06.033Z,15.90
2018-05-12T05:39:05.936Z,17.00
2018-05-12T05:40:58.916Z,15.90
2018-05-12T05:41:58.788Z,15.30
2018-05-12T05:43:51.737Z,14.80
2018-05-12T05:44:51.643Z,16.40
2018-05-12T05:46:44.592Z,14.70
2018-05-12T05:47:44.496Z,14.70
2018-05-12T05:49:37.443Z,14.80
2018-05-12T05:50:37.356Z,15.00
2018-05-12T05:52:30.296Z,14.00
2018-05-12T05:53:30.204Z,15.20
2018-05-12T05:55:23.148Z,16.10
2018-05-12T05:56:23.058Z,16.00
2018-05-12T05:58:15.996Z,16.40
2018-05-12T05:59:15.908Z,16.60
2018-05-12T06:01:08.857Z,16.20
2018-05-12T06:02:08.760Z,17.80
2018-05-12T06:04:01.647Z,16.60
2018-05-12T06:05:01.692Z,17.70
2018-05-12T06:06:54.658Z,18.60
2018-05-12T06:07:54.471Z,17.60
2018-05-12T06:09:47.425Z,18.10
2018-05-12T06:10:47.329Z,17.00
2018-05-12T06:12:40.267Z,20.00
2018-05-12T06:13:40.176Z,19.30
2018-05-12T06:15:33.122Z,19.00
2018-05-12T06:16:33.030Z,19.30
2018-05-12T06:18:25.975Z,18.90
2018-05-12T06:19:26.043Z,17.60
2018-05-12T06:21:18.931Z,19.40
2018-05-12T06:22:18.837Z,20.10
2018-05-12T06:24:11.821Z,18.20
2018-05-12T06:25:11.791Z,17.60
2018-05-12T06:27:04.838Z,18.10
2018-05-12T06:28:04.746Z,19.70
2018-05-12T06:30:03.279Z,19.60
2018-05-12T06:30:57.663Z,19.20
2018-05-12T06:32:50.600Z,18.30
2018-05-12T06:33:50.515Z,18.70
2018-05-12T06:35:44.985Z,19.20
2018-05-12T06:36:44.900Z,19.50
2018-05-12T06:38:37.840Z,17.90
2018-05-12T06:39:37.760Z,18.70
2018-05-12T06:41:30.687Z,18.40
2018-05-12T06:42:30.604Z,20.40
2018-05-12T06:44:23.724Z,19.80
2018-05-12T06:45:23.706Z,19.80
2018-05-12T06:47:16.518Z,19.00
2018-05-12T06:48:16.482Z,18.30
2018-05-12T06:50:09.635Z,18.80
2018-05-12T06:51:09.617Z,20.00
2018-05-12T06:53:02.590Z,19.20
2018-05-12T06:54:02.392Z,18.40
2018-05-12T06:55:55.545Z,18.00
2018-05-12T06:56:55.351Z,20.30
2018-05-12T06:58:48.505Z,18.80
2018-05-12T06:59:48.305Z,20.80
2018-05-12T07:01:41.459Z,19.30
2018-05-12T07:02:41.262Z,19.10
2018-05-12T07:04:34.417Z,18.50
2018-05-12T07:05:34.287Z,17.80
2018-05-12T07:07:27.371Z,19.00
2018-05-12T07:08:27.178Z,18.60
2018-05-12T07:10:20.332Z,18.20
2018-05-12T07:11:20.125Z,20.70
2018-05-12T07:13:13.284Z,18.60
2018-05-12T07:14:13.086Z,20.00
2018-05-12T07:16:06.239Z,16.40
2018-05-12T07:17:06.041Z,17.00
2018-05-12T07:18:59.091Z,17.60
2018-05-12T07:19:58.995Z,19.00
2018-05-12T07:20:59.076Z,16.90
2018-05-12T07:21:58.954Z,19.10
2018-05-12T07:22:58.992Z,16.70
2018-05-12T07:23:58.919Z,16.70
2018-05-12T07:24:59.001Z,18.30
2018-05-12T07:25:58.871Z,17.70
2018-05-12T07:26:58.914Z,18.80
2018-05-12T07:27:58.828Z,16.50
2018-05-12T07:28:58.932Z,16.00
2018-05-12T07:29:58.790Z,15.30
2018-05-12T07:30:58.839Z,17.20
2018-05-12T07:31:58.748Z,18.90
2018-05-12T07:32:58.854Z,16.50
2018-05-12T07:33:58.709Z,16.90
2018-05-12T07:34:58.765Z,14.90
2018-05-12T07:35:58.668Z,15.20
2018-05-12T07:36:58.779Z,15.20
2018-05-12T07:37:58.628Z,15.40
2018-05-12T07:38:58.709Z,16.00
2018-05-12T07:39:58.589Z,14.90
2018-05-12T07:40:58.708Z,15.80
2018-05-12T07:41:58.545Z,16.80
2018-05-12T07:42:58.619Z,14.90
2018-05-12T07:43:58.508Z,14.20
2018-05-12T07:44:58.532Z,16.90
2018-05-12T07:45:58.465Z,16.00
2018-05-12T07:46:58.567Z,14.80
2018-05-12T07:47:58.424Z,15.20
2018-05-12T07:48:58.456Z,14.60
2018-05-12T07:49:58.395Z,15.50
2018-05-12T07:50:58.468Z,15.20
2018-05-12T07:51:58.344Z,15.50
2018-05-12T07:52:58.382Z,17.00
2018-05-12T07:53:58.306Z,17.40
2018-05-12T07:54:58.396Z,18.40
2018-05-12T07:55:58.269Z,15.20
2018-05-12T07:56:58.393Z,15.50
2018-05-12T07:57:58.226Z,16.20
2018-05-12T07:58:58.210Z,15.80
2018-05-12T07:59:58.186Z,14.90
2018-05-12T08:00:58.232Z,16.00
2018-05-12T08:01:58.151Z,17.50
2018-05-12T08:02:58.247Z,16.60
2018-05-12T08:03:58.109Z,15.50
2018-05-12T08:04:58.156Z,17.20
2018-05-12T08:05:58.069Z,14.60
2018-05-12T08:06:58.171Z,16.90
2018-05-12T08:07:58.037Z,16.80
2018-05-12T08:08:58.082Z,16.60
2018-05-12T08:09:57.991Z,15.90
2018-05-12T08:10:58.095Z,15.30
2018-05-12T08:11:57.959Z,15.70
2018-05-12T08:12:58.009Z,14.90
2018-05-12T08:13:57.913Z,16.00
2018-05-12T08:14:58.026Z,14.70
2018-05-12T08:15:57.875Z,14.00
2018-05-12T08:16:57.946Z,13.60
2018-05-12T08:17:57.840Z,14.00
2018-05-12T08:18:57.946Z,12.60
2018-05-12T08:19:57.801Z,15.20
2018-05-12T08:20:57.864Z,15.80
2018-05-12T08:21:57.760Z,13.40
2018-05-12T08:22:57.881Z,12.40
2018-05-12T08:23:57.737Z,12.00
2018-05-12T08:24:57.786Z,11.90
2018-05-12T08:25:57.743Z,13.90
2018-05-12T08:26:57.862Z,12.60
2018-05-12T08:27:57.648Z,11.80
2018-05-12T08:28:57.816Z,11.90
2018-05-12T08:29:57.609Z,13.40
2018-05-12T08:30:57.726Z,11.10
2018-05-12T08:31:57.572Z,12.60
2018-05-12T08:32:57.651Z,11.80
2018-05-12T08:33:57.532Z,11.70
2018-05-12T08:34:57.652Z,15.20
2018-05-12T08:35:57.498Z,12.80
2018-05-12T08:36:57.563Z,13.80
2018-05-12T08:37:57.458Z,13.30
2018-05-12T08:38:57.577Z,9.90
2018-05-12T08:39:57.422Z,10.50
2018-05-12T08:40:57.430Z,9.50
2018-05-12T08:41:57.380Z,13.50
2018-05-12T08:42:57.403Z,12.00
2018-05-12T08:43:57.351Z,12.10
2018-05-12T08:44:57.517Z,9.60
2018-05-12T08:45:57.316Z,9.20
2018-05-12T08:46:57.431Z,10.60
2018-05-12T08:47:57.275Z,9.10
2018-05-12T08:48:57.443Z,10.10
2018-05-12T08:49:57.237Z,11.20
2018-05-12T08:50:57.271Z,11.00
2018-05-12T08:51:57.205Z,10.90
2018-05-12T08:52:57.287Z,10.10
2018-05-12T08:53:57.164Z,9.80
2018-05-12T08:54:57.194Z,10.90
2018-05-12T08:55:57.131Z,12.90
2018-05-12T08:56:57.136Z,11.10
2018-05-12T08:57:57.111Z,10.70
2018-05-12T08:58:57.078Z,11.80
2018-05-12T08:59:57.193Z,9.80
2018-05-12T09:00:57.044Z,9.70
2018-05-12T09:01:57.137Z,13.10
2018-05-12T09:02:57.011Z,12.20
2018-05-12T09:03:57.047Z,10.10
2018-05-12T09:04:57.007Z,9.90
2018-05-12T09:05:57.984Z,8.90
2018-05-12T09:06:56.937Z,10.50
2018-05-12T09:07:56.968Z,8.70
2018-05-12T09:08:56.904Z,8.90
2018-05-12T09:09:56.983Z,9.40
2018-05-12T09:10:56.869Z,8.70
2018-05-12T09:11:56.891Z,9.60
2018-05-12T09:12:56.929Z,8.20
2018-05-12T09:13:56.907Z,7.20
2018-05-12T09:14:56.898Z,6.20
2018-05-12T09:15:56.820Z,6.60
2018-05-12T09:16:56.756Z,5.90
2018-05-12T09:17:56.831Z,6.20
2018-05-12T09:18:56.735Z,8.30
2018-05-12T09:19:56.716Z,7.70
2018-05-12T09:20:56.702Z,6.70
2018-05-12T09:21:56.749Z,6.70
2018-05-12T09:22:56.665Z,6.70
2018-05-12T09:23:56.760Z,5.40
2018-05-12T09:24:56.634Z,6.20
2018-05-12T09:25:56.675Z,7.30
2018-05-12T09:26:56.590Z,4.40
2018-05-12T09:27:56.684Z,4.90
2018-05-12T09:28:56.569Z,5.10
2018-05-12T09:29:56.595Z,5.80
2018-05-12T09:30:56.534Z,4.70
2018-05-12T09:31:56.606Z,6.40
2018-05-12T09:32:56.507Z,5.50
2018-05-12T09:33:56.517Z,5.20
2018-05-12T09:34:56.471Z,6.70
2018-05-12T09:35:56.529Z,4.50
2018-05-12T09:36:56.440Z,4.20
2018-05-12T09:37:56.441Z,4.00
2018-05-12T09:38:56.406Z,5.50
2018-05-12T09:39:56.451Z,4.30
2018-05-12T09:40:56.375Z,3.60
2018-05-12T09:41:56.464Z,5.40
2018-05-12T09:42:56.344Z,5.70
2018-05-12T09:43:56.374Z,5.60
2018-05-12T09:44:56.359Z,4.40
2018-05-12T09:45:56.388Z,5.80
2018-05-12T09:46:56.284Z,5.30
2018-05-12T09:47:56.297Z,4.40
2018-05-12T09:48:56.251Z,4.30
2018-05-12T09:49:56.309Z,4.40
2018-05-12T09:50:56.220Z,5.20
2018-05-12T09:51:56.321Z,4.90
2018-05-12T09:52:56.193Z,5.10
2018-05-12T09:53:56.234Z,4.00
2018-05-12T09:54:56.164Z,4.40
2018-05-12T09:55:57.167Z,2.40
2018-05-12T09:56:56.130Z,3.80
2018-05-12T09:57:57.181Z,3.70
2018-05-12T09:58:56.102Z,5.20
2018-05-12T09:59:56.166Z,3.40
2018-05-12T10:00:56.076Z,5.50
2018-05-12T10:01:56.077Z,5.40
2018-05-12T10:02:56.045Z,4.00
2018-05-12T10:03:56.089Z,5.10
2018-05-12T10:04:56.016Z,4.40
2018-05-12T10:05:56.101Z,5.70
2018-05-12T10:06:55.987Z,4.70
2018-05-12T10:07:56.012Z,4.10
2018-05-12T10:08:55.958Z,4.60
2018-05-12T10:09:56.026Z,6.70
2018-05-12T10:10:55.931Z,4.80
2018-05-12T10:11:55.936Z,3.80
2018-05-12T10:12:56.075Z,5.30
2018-05-12T10:13:55.946Z,4.30
2018-05-12T10:14:55.875Z,5.10
2018-05-12T10:15:55.965Z,4.00
2018-05-12T10:16:55.848Z,5.20
2018-05-12T10:17:55.871Z,5.00
2018-05-12T10:18:55.820Z,4.80
2018-05-12T10:19:55.890Z,5.60
2018-05-12T10:20:55.800Z,4.00
2018-05-12T10:21:55.794Z,4.10
2018-05-12T10:22:55.768Z,5.10
2018-05-12T10:23:55.808Z,3.50
2018-05-12T10:24:55.739Z,4.00
2018-05-12T10:25:55.823Z,6.20
2018-05-12T10:26:55.712Z,5.00
2018-05-12T10:27:55.732Z,5.70
2018-05-12T10:28:55.694Z,4.00
2018-05-12T10:29:55.744Z,5.60
2018-05-12T10:30:55.662Z,4.40
2018-05-12T10:31:55.758Z,3.40
2018-05-12T10:32:55.637Z,4.80
2018-05-12T10:33:55.667Z,4.00
2018-05-12T10:34:55.610Z,4.40
2018-05-12T10:35:55.680Z,3.50
2018-05-12T10:36:55.593Z,4.50
2018-05-12T10:37:55.586Z,3.50
2018-05-12T10:38:55.607Z,5.30
2018-05-12T10:39:55.605Z,2.90
2018-05-12T10:40:55.535Z,5.00
2018-05-12T10:41:55.609Z,3.10
2018-05-12T10:42:55.510Z,4.50
2018-05-12T10:43:55.519Z,3.80
2018-05-12T10:44:55.580Z,4.50
2018-05-12T10:45:55.533Z,3.60
2018-05-12T10:46:55.461Z,3.50
2018-05-12T10:47:55.546Z,4.30
2018-05-12T10:48:55.434Z,3.80
2018-05-12T10:49:55.456Z,4.90
2018-05-12T10:50:55.420Z,3.10
2018-05-12T10:51:55.468Z,4.60
2018-05-12T10:52:55.383Z,5.40
2018-05-12T10:53:55.480Z,4.50
2018-05-12T10:54:55.359Z,3.40
2018-05-12T10:55:55.390Z,4.20
2018-05-12T10:56:55.350Z,4.40
2018-05-12T10:57:55.403Z,4.90
2018-05-12T10:58:55.310Z,5.60
2018-05-12T10:59:56.338Z,3.30
2018-05-12T11:00:55.287Z,5.30
2018-05-12T11:01:55.329Z,3.70
2018-05-12T11:02:55.258Z,4.10
2018-05-12T11:03:55.343Z,3.50
2018-05-12T11:04:55.240Z,5.40
2018-05-12T11:05:55.249Z,4.50
2018-05-12T11:06:55.225Z,3.40
2018-05-12T11:07:55.265Z,4.50
2018-05-12T11:08:55.189Z,3.30
2018-05-12T11:09:55.273Z,5.60
2018-05-12T11:10:55.164Z,4.20
2018-05-12T11:11:55.185Z,4.40
2018-05-12T11:12:55.140Z,4.30
2018-05-12T11:13:55.195Z,2.30
2018-05-12T11:14:55.117Z,2.90
2018-05-12T11:15:55.245Z,4.90
2018-05-12T11:16:55.091Z,3.80
2018-05-12T11:17:55.127Z,5.10
2018-05-12T11:18:55.069Z,5.50
2018-05-12T11:19:55.132Z,3.50
2018-05-12T11:20:55.050Z,4.50
2018-05-12T11:21:55.273Z,4.30
2018-05-12T11:22:55.026Z,5.60
2018-05-12T11:23:55.055Z,4.60
2018-05-12T11:24:54.996Z,5.90
2018-05-12T11:25:55.069Z,5.80
2018-05-12T11:26:54.975Z,6.30
2018-05-12T11:27:54.982Z,4.80
2018-05-12T11:28:54.953Z,6.80
2018-05-12T11:29:54.937Z,8.90
2018-05-12T11:30:54.992Z,5.70
2018-05-12T11:31:54.918Z,4.70
2018-05-12T11:32:55.017Z,6.30
2018-05-12T11:33:54.896Z,4.80
2018-05-12T11:34:54.880Z,5.30
2018-05-12T11:35:54.878Z,5.40
2018-05-12T11:36:54.943Z,6.20
2018-05-12T11:37:54.845Z,3.30
2018-05-12T11:38:54.961Z,5.40
2018-05-12T11:39:54.838Z,4.50
2018-05-12T11:40:54.877Z,4.20
2018-05-12T11:41:54.802Z,4.30
2018-05-12T11:42:54.882Z,4.20
2018-05-12T11:43:54.779Z,4.30
2018-05-12T11:44:54.895Z,4.50
2018-05-12T11:45:54.761Z,5.70
2018-05-12T11:46:54.809Z,5.50
2018-05-12T11:47:54.740Z,5.00
2018-05-12T11:48:54.824Z,5.00
2018-05-12T11:49:54.714Z,5.30
2018-05-12T11:50:54.836Z,6.40
2018-05-12T11:51:54.690Z,10.40
2018-05-12T11:52:54.747Z,7.90
2018-05-12T11:53:54.678Z,7.00
2018-05-12T11:54:59.685Z,11.70
2018-05-12T11:55:54.642Z,4.90
2018-05-12T11:56:54.794Z,7.10
2018-05-12T11:57:54.623Z,5.20
2018-05-12T11:58:54.700Z,5.00
2018-05-12T11:59:54.602Z,5.90
2018-05-12T12:00:54.715Z,4.10
2018-05-12T12:01:54.577Z,14.80
2018-05-12T12:02:54.629Z,9.50
2018-05-12T12:03:54.564Z,5.40
2018-05-12T12:04:54.641Z,6.60
2018-05-12T12:05:54.537Z,13.50
2018-05-12T12:06:54.654Z,7.00
2018-05-12T12:07:54.514Z,5.70
2018-05-12T12:08:54.565Z,5.40
2018-05-12T12:09:54.490Z,6.80
2018-05-12T12:10:54.572Z,5.90
2018-05-12T12:11:54.467Z,5.30
2018-05-12T12:12:54.491Z,5.70
2018-05-12T12:13:54.444Z,6.30
2018-05-12T12:14:54.516Z,5.40
2018-05-12T12:15:54.421Z,6.30
2018-05-12T12:16:54.534Z,4.50
2018-05-12T12:17:54.396Z,6.20
2018-05-12T12:18:54.544Z,5.80
2018-05-12T12:19:54.377Z,7.90
2018-05-12T12:20:54.385Z,5.70
2018-05-12T12:21:54.360Z,5.70
2018-05-12T12:22:54.462Z,6.40
2018-05-12T12:23:54.331Z,6.90
2018-05-12T12:24:54.474Z,6.90
2018-05-12T12:25:54.308Z,8.40
2018-05-12T12:26:54.386Z,6.50
2018-05-12T12:27:54.289Z,6.10
2018-05-12T12:28:54.399Z,4.90
2018-05-12T12:29:54.266Z,4.80
2018-05-12T12:30:54.413Z,6.60
2018-05-12T12:31:54.246Z,6.60
2018-05-12T12:32:54.324Z,6.80
2018-05-12T12:33:54.221Z,4.50
2018-05-12T12:34:54.342Z,3.70
2018-05-12T12:35:54.200Z,4.00
2018-05-12T12:36:54.358Z,5.70
2018-05-12T12:37:54.180Z,4.10
2018-05-12T12:38:54.270Z,5.10
2018-05-12T12:39:54.160Z,6.40
2018-05-12T12:40:54.282Z,4.30
2018-05-12T12:41:54.134Z,4.00
2018-05-12T12:42:54.299Z,4.60
2018-05-12T12:43:54.115Z,4.60
2018-05-12T12:44:54.208Z,3.80
2018-05-12T12:45:54.091Z,4.10
2018-05-12T12:46:54.230Z,5.20
2018-05-12T12:47:54.079Z,4.00
2018-05-12T12:48:54.235Z,4.60
2018-05-12T12:49:54.056Z,4.70
2018-05-12T12:50:54.150Z,4.20
2018-05-12T12:51:54.027Z,5.30
2018-05-12T12:52:54.163Z,5.50
2018-05-12T12:53:54.007Z,5.70
2018-05-12T12:54:54.180Z,4.50
2018-05-12T12:55:53.986Z,4.30
2018-05-12T12:56:54.091Z,5.80
2018-05-12T12:57:53.957Z,7.30
2018-05-12T12:58:54.106Z,5.30
2018-05-12T12:59:53.941Z,4.60
2018-05-12T13:00:54.117Z,4.30
2018-05-12T13:01:53.918Z,6.60
2018-05-12T13:02:54.029Z,3.70
2018-05-12T13:03:53.898Z,4.30
2018-05-12T13:04:54.135Z,4.90
2018-05-12T13:05:53.884Z,3.80
2018-05-12T13:06:54.057Z,5.30
2018-05-12T13:07:53.857Z,4.90
2018-05-12T13:08:54.991Z,5.80
2018-05-12T13:09:53.833Z,3.60
2018-05-12T13:10:53.994Z,3.80
2018-05-12T13:11:53.817Z,4.60
2018-05-12T13:12:53.996Z,3.70
2018-05-12T13:13:53.869Z,3.50
2018-05-12T13:14:53.905Z,6.40
2018-05-12T13:15:53.819Z,4.50
2018-05-12T13:16:53.919Z,4.40
2018-05-12T13:17:53.766Z,4.30
2018-05-12T13:18:53.837Z,5.90
2018-05-12T13:19:53.739Z,4.10
2018-05-12T13:20:53.748Z,4.00
2018-05-12T13:21:53.719Z,4.40
2018-05-12T13:22:53.759Z,3.90
2018-05-12T13:23:53.705Z,5.90
2018-05-12T13:24:53.773Z,4.30
2018-05-12T13:25:53.677Z,4.60
2018-05-12T13:26:53.689Z,4.70
2018-05-12T13:27:53.749Z,3.50
2018-05-12T13:28:53.695Z,3.60
2018-05-12T13:29:53.639Z,4.70
2018-05-12T13:30:53.711Z,3.60
2018-05-12T13:31:53.619Z,3.90
2018-05-12T13:32:53.607Z,7.00
2018-05-12T13:33:54.766Z,3.90
2018-05-12T13:34:53.585Z,5.10
2018-05-12T13:35:53.676Z,4.90
2018-05-12T13:36:53.580Z,4.60
2018-05-12T13:37:53.562Z,5.00
2018-05-12T13:38:53.585Z,3.80
2018-05-12T13:39:53.567Z,4.00
2018-05-12T13:40:53.615Z,4.60
2018-05-12T13:41:53.542Z,4.40
2018-05-12T13:42:53.530Z,6.00
2018-05-12T13:43:53.499Z,5.90
2018-05-12T13:44:53.578Z,5.50
2018-05-12T13:45:53.479Z,4.50
2018-05-12T13:46:53.557Z,4.20
2018-05-12T13:47:53.464Z,5.00
2018-05-12T13:48:53.571Z,5.60
2018-05-12T13:49:53.434Z,3.10
2018-05-12T13:50:54.506Z,5.10
2018-05-12T13:51:53.415Z,4.30
2018-05-12T13:52:53.499Z,4.70
2018-05-12T13:53:53.388Z,5.30
2018-05-12T13:54:53.470Z,4.30
2018-05-12T13:55:53.503Z,4.90
2018-05-12T13:56:53.519Z,4.20
2018-05-12T13:57:53.357Z,3.80
2018-05-12T13:58:53.436Z,6.10
2018-05-12T13:59:53.338Z,5.00
2018-05-12T14:00:53.347Z,5.00
2018-05-12T14:01:53.342Z,3.70
2018-05-12T14:02:53.365Z,5.90
2018-05-12T14:03:53.317Z,5.20
2018-05-12T14:04:53.376Z,6.50
2018-05-12T14:05:53.302Z,5.00
2018-05-12T14:06:53.290Z,6.00
2018-05-12T14:07:53.252Z,6.60
2018-05-12T14:08:53.301Z,7.20
2018-05-12T14:09:53.228Z,4.60
2018-05-12T14:10:53.316Z,6.50
2018-05-12T14:11:53.220Z,4.70
2018-05-12T14:12:53.226Z,7.00
2018-05-12T14:13:53.193Z,6.80
2018-05-12T14:14:53.244Z,5.60
2018-05-12T14:15:53.164Z,5.20
2018-05-12T14:16:53.255Z,5.60
2018-05-12T14:17:53.204Z,6.70
2018-05-12T14:18:53.172Z,4.40
2018-05-12T14:19:53.122Z,5.10
2018-05-12T14:20:53.181Z,5.50
2018-05-12T14:21:53.099Z,5.00
2018-05-12T14:22:53.195Z,8.60
2018-05-12T14:23:53.078Z,5.50
2018-05-12T14:24:53.106Z,6.10
2018-05-12T14:25:53.061Z,6.60
2018-05-12T14:26:53.120Z,4.90
2018-05-12T14:27:53.035Z,6.60
2018-05-12T14:28:53.137Z,6.00
2018-05-12T14:29:53.007Z,5.60
2018-05-12T14:30:54.070Z,4.70
2018-05-12T14:31:52.985Z,5.20
2018-05-12T14:32:53.062Z,4.40
2018-05-12T14:33:52.962Z,3.40
2018-05-12T14:34:52.973Z,5.30
2018-05-12T14:35:52.941Z,5.00
2018-05-12T14:36:52.988Z,7.60
2018-05-12T14:37:52.915Z,4.80
2018-05-12T14:38:53.003Z,6.30
2018-05-12T14:39:52.894Z,5.30
2018-05-12T14:40:52.913Z,4.70
2018-05-12T14:41:52.869Z,5.00
2018-05-12T14:42:52.954Z,5.60
2018-05-12T14:43:52.845Z,4.40
2018-05-12T14:44:52.942Z,6.00
2018-05-12T14:45:52.821Z,4.20
2018-05-12T14:46:52.851Z,5.90
2018-05-12T14:47:52.802Z,8.10
2018-05-12T14:48:52.872Z,6.00
2018-05-12T14:49:52.794Z,4.90
2018-05-12T14:50:52.777Z,4.20
2018-05-12T14:51:52.750Z,7.30
2018-05-12T14:52:52.792Z,5.00
2018-05-12T14:53:52.727Z,8.20
2018-05-12T14:54:52.818Z,6.80
2018-05-12T14:55:52.699Z,13.90
2018-05-12T14:56:52.735Z,8.80
2018-05-12T14:57:52.677Z,4.80
2018-05-12T14:58:52.734Z,6.20
2018-05-12T14:59:52.661Z,5.30
2018-05-12T15:00:52.749Z,4.40